Time;durP1;ratioP1;P1;durP2;ratioP2;P2;SDS_P1;SDS_P2;PMS_P1;PMS_P2;Temp;Humidity;BMP_temperature;BMP_pressure;BME280_temperature;BME280_humidity;BME280_pressure;Samples;Min_cycle;Max_cycle;Signal;HPM_P1;HPM_P2
2023/12/25 00:00:45;;;;;;;70.10;34.88;;;9.50;99.90;;;;;;4944511;29;20028;-85
2023/12/25 00:03:14;;;;;;;81.88;36.63;;;9.50;99.90;;;;;;4955836;28;20031;-86
2023/12/25 00:05:41;;;;;;;69.32;36.63;;;9.50;99.90;;;;;;4939930;29;20062;-84
2023/12/25 00:08:07;;;;;;;81.18;38.10;;;9.50;99.90;;;;;;4939866;29;20028;-86
2023/12/25 00:10:33;;;;;;;70.80;35.05;;;9.50;99.90;;;;;;4955325;28;20050;-87
2023/12/25 00:13:00;;;;;;;79.97;35.47;;;9.40;99.90;;;;;;4939550;29;20023;-86
2023/12/25 00:15:26;;;;;;;77.55;35.65;;;9.40;99.90;;;;;;4955439;29;20038;-87
2023/12/25 00:17:52;;;;;;;78.28;34.30;;;9.40;99.90;;;;;;4955692;28;20035;-86
2023/12/25 00:20:18;;;;;;;82.00;34.17;;;9.40;99.90;;;;;;4939688;29;20031;-87
2023/12/25 00:22:45;;;;;;;90.45;34.65;;;9.40;99.90;;;;;;4954920;29;20038;-86
2023/12/25 00:25:11;;;;;;;91.40;37.33;;;9.50;99.90;;;;;;4939610;29;20034;-85
2023/12/25 00:27:38;;;;;;;127.05;45.35;;;9.50;99.90;;;;;;4955433;29;20039;-84
2023/12/25 00:30:04;;;;;;;136.77;44.83;;;9.50;99.90;;;;;;4939358;29;20031;-90
2023/12/25 00:32:31;;;;;;;196.90;55.10;;;9.50;99.90;;;;;;4939593;29;20034;-86
2023/12/25 00:34:57;;;;;;;111.15;41.55;;;9.50;99.90;;;;;;4939375;29;20023;-81
2023/12/25 00:37:23;;;;;;;111.35;38.88;;;9.50;99.90;;;;;;4939157;29;20039;-85
2023/12/25 00:39:50;;;;;;;125.07;43.05;;;9.50;99.90;;;;;;4939113;29;20106;-85
2023/12/25 00:42:18;;;;;;;64.53;30.42;;;9.50;99.90;;;;;;4955458;29;20425;-86
2023/12/25 00:44:44;;;;;;;81.15;32.60;;;9.40;99.90;;;;;;4939264;29;20030;-86
2023/12/25 00:47:10;;;;;;;97.88;33.20;;;9.40;99.90;;;;;;4957538;28;20039;-86
2023/12/25 00:49:37;;;;;;;93.18;36.97;;;9.40;99.90;;;;;;4957532;28;20039;-88
2023/12/25 00:52:04;;;;;;;92.68;34.40;;;9.30;99.90;;;;;;4956887;28;20047;-88
2023/12/25 00:54:31;;;;;;;63.83;29.73;;;9.20;99.90;;;;;;4957319;28;20078;-86
2023/12/25 00:56:58;;;;;;;93.32;33.60;;;9.10;99.90;;;;;;4956905;28;20130;-87
2023/12/25 00:59:24;;;;;;;70.15;31.50;;;9.00;99.90;;;;;;4956889;28;20039;-86
2023/12/25 01:01:53;;;;;;;79.95;31.52;;;9.10;99.90;;;;;;4956989;28;20082;-87
2023/12/25 01:04:20;;;;;;;65.60;29.38;;;9.00;99.90;;;;;;4957193;28;20121;-86
2023/12/25 01:06:46;;;;;;;110.05;35.22;;;9.00;99.90;;;;;;4941236;28;20030;-86
2023/12/25 01:09:13;;;;;;;75.80;32.22;;;8.90;99.90;;;;;;4940805;28;20035;-85
2023/12/25 01:11:41;;;;;;;85.65;32.15;;;8.90;99.90;;;;;;4974270;28;20086;-86
2023/12/25 01:14:08;;;;;;;68.07;29.98;;;8.80;99.90;;;;;;4976290;28;20113;-85
2023/12/25 01:16:34;;;;;;;70.70;31.88;;;8.80;99.90;;;;;;4975980;28;20030;-85
2023/12/25 01:19:01;;;;;;;57.45;29.88;;;8.70;99.90;;;;;;4976060;28;20053;-86
2023/12/25 01:21:27;;;;;;;84.35;33.30;;;8.70;99.90;;;;;;4980107;28;20029;-87
2023/12/25 01:23:54;;;;;;;74.30;31.33;;;8.70;99.90;;;;;;4980294;28;20030;-84
2023/12/25 01:26:20;;;;;;;65.32;30.27;;;8.70;99.90;;;;;;4995810;28;20069;-84
2023/12/25 01:28:49;;;;;;;62.92;29.38;;;8.70;99.90;;;;;;4979476;28;20117;-84
2023/12/25 01:31:17;;;;;;;83.00;29.75;;;8.70;99.90;;;;;;4965056;28;20117;-82
2023/12/25 01:33:44;;;;;;;79.50;32.22;;;8.60;99.90;;;;;;4959985;28;20037;-84
2023/12/25 01:36:10;;;;;;;60.80;32.20;;;8.60;99.90;;;;;;4959714;28;20069;-84
2023/12/25 01:38:36;;;;;;;64.18;30.45;;;8.60;99.90;;;;;;4959810;28;20031;-85
2023/12/25 01:41:03;;;;;;;60.25;29.92;;;8.60;99.90;;;;;;4971917;28;20479;-82
2023/12/25 01:43:29;;;;;;;59.03;28.92;;;8.60;99.90;;;;;;4995696;28;20113;-84
2023/12/25 01:45:55;;;;;;;58.97;29.17;;;8.50;99.90;;;;;;4979665;28;20441;-84
2023/12/25 01:48:24;;;;;;;66.13;31.02;;;8.50;99.90;;;;;;4979308;28;20041;-84
2023/12/25 01:50:52;;;;;;;57.33;29.63;;;8.50;99.90;;;;;;4969180;28;20041;-84
2023/12/25 01:53:20;;;;;;;57.33;29.05;;;8.50;99.90;;;;;;4960253;28;20030;-85
2023/12/25 01:55:46;;;;;;;51.50;28.33;;;8.60;99.90;;;;;;4960147;28;20121;-84
2023/12/25 01:58:16;;;;;;;67.95;29.30;;;8.60;99.90;;;;;;4993530;28;20402;-84
2023/12/25 02:00:42;;;;;;;54.20;27.80;;;8.70;99.90;;;;;;4968956;28;20036;-84
2023/12/25 02:03:09;;;;;;;48.95;26.35;;;8.80;99.90;;;;;;4979356;28;20483;-84
2023/12/25 02:05:36;;;;;;;63.92;26.92;;;8.90;99.90;;;;;;4995536;28;20030;-84
2023/12/25 02:08:05;;;;;;;61.90;28.20;;;8.90;99.90;;;;;;4979364;28;20088;-84
2023/12/25 02:10:32;;;;;;;71.78;29.23;;;9.10;99.90;;;;;;4987925;28;20023;-84
2023/12/25 02:13:02;;;;;;;68.22;29.67;;;9.20;99.90;;;;;;4960095;28;20031;-85
2023/12/25 02:15:29;;;;;;;69.10;29.40;;;9.40;99.90;;;;;;4960029;28;20392;-84
2023/12/25 02:17:55;;;;;;;59.50;27.02;;;9.50;99.90;;;;;;4959901;28;20054;-85
2023/12/25 02:20:23;;;;;;;71.10;30.70;;;9.50;99.90;;;;;;4965720;28;20022;-85
2023/12/25 02:22:50;;;;;;;59.78;27.40;;;9.60;99.90;;;;;;4978851;28;20026;-84
2023/12/25 02:25:31;;;;;;;71.10;27.63;;;9.60;99.90;;;;;;4995443;28;20037;-82
2023/12/25 02:28:01;;;;;;;80.28;32.95;;;9.70;99.90;;;;;;4979199;28;20109;-82
2023/12/25 02:30:32;;;;;;;112.80;36.88;;;9.80;99.90;;;;;;4988261;28;20022;-82
2023/12/25 02:33:04;;;;;;;129.20;38.97;;;9.80;99.90;;;;;;4975857;28;20483;-82
2023/12/25 02:35:31;;;;;;;104.10;36.97;;;9.70;99.90;;;;;;4993182;28;20113;-84
2023/12/25 02:37:58;;;;;;;87.63;34.78;;;9.60;99.90;;;;;;4975863;28;20455;-83
2023/12/25 02:40:24;;;;;;;99.03;38.15;;;9.40;99.90;;;;;;4981661;28;20480;-82
2023/12/25 02:42:51;;;;;;;61.60;31.23;;;9.30;99.90;;;;;;4981455;28;20026;-82
2023/12/25 02:45:18;;;;;;;92.75;33.30;;;9.10;99.90;;;;;;4982641;28;20116;-83
2023/12/25 02:47:44;;;;;;;75.25;31.83;;;9.00;99.90;;;;;;4979110;28;20538;-82
2023/12/25 02:50:11;;;;;;;63.95;29.58;;;8.90;99.90;;;;;;4971958;28;20073;-83
2023/12/25 02:52:37;;;;;;;58.30;27.15;;;8.90;99.90;;;;;;4972748;28;20043;-83
2023/12/25 02:55:04;;;;;;;65.20;28.35;;;8.80;99.90;;;;;;4972844;28;20051;-83
2023/12/25 02:57:30;;;;;;;62.15;27.75;;;8.80;99.90;;;;;;4972615;28;20035;-83
2023/12/25 02:59:57;;;;;;;82.07;31.30;;;8.80;99.90;;;;;;4960476;28;20023;-83
2023/12/25 03:02:24;;;;;;;52.30;26.52;;;8.80;99.90;;;;;;4979337;28;20037;-83
2023/12/25 03:04:53;;;;;;;54.78;26.95;;;8.70;99.90;;;;;;4995399;28;20049;-83
2023/12/25 03:07:20;;;;;;;76.95;27.20;;;8.70;99.90;;;;;;4976122;28;20033;-83
2023/12/25 03:09:46;;;;;;;67.88;26.67;;;8.70;99.90;;;;;;4994603;28;20487;-83
2023/12/25 03:12:12;;;;;;;56.05;25.08;;;8.70;99.90;;;;;;4959545;28;20027;-83
2023/12/25 03:14:41;;;;;;;45.35;24.90;;;8.70;99.90;;;;;;4975007;28;20031;-82
2023/12/25 03:17:07;;;;;;;38.28;22.15;;;8.70;99.90;;;;;;4959572;28;20041;-83
2023/12/25 03:19:34;;;;;;;48.72;24.20;;;8.60;99.90;;;;;;4975876;28;20050;-82
2023/12/25 03:22:00;;;;;;;40.08;21.67;;;8.60;99.90;;;;;;4977360;28;20033;-83
2023/12/25 03:24:30;;;;;;;39.55;21.85;;;8.60;99.90;;;;;;4994894;28;20545;-83
2023/12/25 03:26:56;;;;;;;45.55;22.98;;;8.60;99.90;;;;;;4978787;28;20050;-83
2023/12/25 03:29:23;;;;;;;49.97;25.05;;;8.60;99.90;;;;;;4995449;28;20076;-82
2023/12/25 03:31:49;;;;;;;47.88;24.23;;;8.60;99.90;;;;;;4977514;28;20030;-82
2023/12/25 03:34:18;;;;;;;39.95;22.85;;;8.50;99.90;;;;;;4976500;28;20041;-83
2023/12/25 03:36:45;;;;;;;35.72;20.35;;;8.50;99.90;;;;;;4959168;28;20093;-83
2023/12/25 03:39:15;;;;;;;32.28;20.63;;;8.50;99.90;;;;;;4975276;28;20038;-83
2023/12/25 03:41:41;;;;;;;31.42;19.98;;;8.40;99.90;;;;;;4974278;28;20538;-83
2023/12/25 03:44:11;;;;;;;33.47;19.77;;;8.40;99.90;;;;;;4994611;28;20053;-83
2023/12/25 03:46:37;;;;;;;38.03;19.90;;;8.40;99.90;;;;;;4978358;28;20019;-83
2023/12/25 03:49:03;;;;;;;37.47;20.40;;;8.40;99.90;;;;;;4978310;28;20137;-83
2023/12/25 03:51:36;;;;;;;42.22;20.05;;;8.40;99.90;;;;;;4961267;28;20078;-83
2023/12/25 03:54:02;;;;;;;48.13;22.08;;;8.40;99.90;;;;;;4955341;28;20034;-83
2023/12/25 03:56:29;;;;;;;40.60;21.20;;;8.50;99.90;;;;;;4971787;28;20067;-84
2023/12/25 03:58:56;;;;;;;46.08;22.73;;;8.50;99.90;;;;;;4955591;28;20039;-83
2023/12/25 04:01:23;;;;;;;48.92;23.33;;;8.50;99.90;;;;;;4987307;28;20490;-82
2023/12/25 04:03:50;;;;;;;40.20;20.65;;;8.50;99.90;;;;;;4994235;28;20479;-83
2023/12/25 04:06:26;;;;;;;35.38;19.83;;;8.60;99.90;;;;;;4994197;28;20022;-83
2023/12/25 04:08:52;;;;;;;30.00;18.63;;;8.60;99.90;;;;;;4995360;28;20416;-83
2023/12/25 04:11:22;;;;;;;41.10;20.52;;;8.60;99.90;;;;;;4982060;28;20019;-82
2023/12/25 04:13:56;;;;;;;41.30;21.25;;;8.60;99.90;;;;;;4974569;28;20038;-82
2023/12/25 04:16:24;;;;;;;43.97;18.55;;;8.70;99.90;;;;;;4974331;28;20480;-83
2023/12/25 04:18:54;;;;;;;60.10;20.23;;;8.70;99.90;;;;;;4958311;28;20050;-82
2023/12/25 04:21:27;;;;;;;46.88;19.50;;;8.70;99.90;;;;;;4974345;28;20113;-82
2023/12/25 04:23:55;;;;;;;64.18;20.73;;;8.80;99.90;;;;;;4958369;28;20113;-83
2023/12/25 04:26:23;;;;;;;53.85;20.67;;;8.90;99.90;;;;;;4958222;28;20162;-84
2023/12/25 04:28:53;;;;;;;46.53;19.42;;;9.00;99.90;;;;;;4974360;28;20041;-82
2023/12/25 04:31:20;;;;;;;51.45;18.05;;;9.00;99.90;;;;;;4963348;28;20027;-82
2023/12/25 04:33:47;;;;;;;36.03;18.55;;;9.10;99.90;;;;;;4970788;28;20023;-83
2023/12/25 04:36:13;;;;;;;68.07;18.30;;;9.30;99.90;;;;;;4971005;28;20031;-82
2023/12/25 04:38:40;;;;;;;40.40;17.55;;;9.40;99.90;;;;;;4970803;28;20141;-83
2023/12/25 04:41:07;;;;;;;46.20;18.45;;;9.40;99.90;;;;;;4968064;28;20092;-83
2023/12/25 04:43:34;;;;;;;46.97;18.50;;;9.50;99.90;;;;;;4977435;28;20027;-83
2023/12/25 04:46:04;;;;;;;51.00;17.70;;;9.50;99.90;;;;;;4977320;28;20030;-83
2023/12/25 04:48:30;;;;;;;28.73;18.05;;;9.60;99.90;;;;;;4993328;28;20053;-83
2023/12/25 04:50:57;;;;;;;50.42;18.13;;;9.70;99.90;;;;;;4965544;28;20038;-83
2023/12/25 04:53:23;;;;;;;70.10;20.02;;;9.70;99.90;;;;;;4954698;29;20397;-83
2023/12/25 04:55:49;;;;;;;57.75;18.67;;;9.80;99.90;;;;;;4954499;29;20054;-83
2023/12/25 04:58:16;;;;;;;32.03;16.48;;;9.90;99.90;;;;;;4954491;28;20416;-83
2023/12/25 05:00:42;;;;;;;55.70;17.83;;;10.00;99.90;;;;;;4954590;29;20019;-83
2023/12/25 05:03:09;;;;;;;29.77;17.50;;;10.00;99.90;;;;;;4963505;28;20454;-84
2023/12/25 05:05:35;;;;;;;54.28;18.25;;;10.00;99.90;;;;;;4992481;28;20065;-84
2023/12/25 05:08:02;;;;;;;31.08;17.33;;;10.10;99.90;;;;;;4976476;28;20027;-82
2023/12/25 05:10:29;;;;;;;35.08;17.60;;;10.20;99.90;;;;;;4978081;28;20032;-83
2023/12/25 05:12:56;;;;;;;40.13;19.08;;;10.30;99.90;;;;;;4992763;28;20561;-83
2023/12/25 05:15:22;;;;;;;70.72;19.70;;;10.30;99.90;;;;;;4994214;28;20041;-83
2023/12/25 05:17:48;;;;;;;44.75;19.33;;;10.30;99.90;;;;;;4976759;28;20407;-83
2023/12/25 05:20:15;;;;;;;32.05;18.98;;;10.40;99.90;;;;;;4976739;28;20361;-83
2023/12/25 05:22:41;;;;;;;38.78;18.85;;;10.30;99.90;;;;;;4992789;28;20034;-83
2023/12/25 05:25:08;;;;;;;37.25;19.45;;;10.30;99.90;;;;;;4993989;28;20432;-84
2023/12/25 05:27:35;;;;;;;25.90;17.05;;;10.40;99.90;;;;;;4992727;28;20038;-82
2023/12/25 05:30:01;;;;;;;28.33;18.77;;;10.40;99.90;;;;;;4976141;28;20117;-83
2023/12/25 05:32:29;;;;;;;26.63;16.98;;;10.30;99.90;;;;;;4974564;28;20034;-83
2023/12/25 05:34:55;;;;;;;30.88;16.45;;;10.30;99.90;;;;;;4974512;28;20143;-83
2023/12/25 05:37:21;;;;;;;25.02;14.80;;;10.40;99.90;;;;;;4973327;28;20035;-82
2023/12/25 05:39:48;;;;;;;27.42;14.52;;;10.30;99.90;;;;;;4973768;28;20113;-83
2023/12/25 05:42:15;;;;;;;21.00;14.07;;;10.30;99.90;;;;;;4991082;28;20030;-83
2023/12/25 05:44:41;;;;;;;23.48;14.07;;;10.20;99.90;;;;;;4992639;28;20034;-83
2023/12/25 05:47:07;;;;;;;15.95;13.45;;;10.20;99.90;;;;;;4993933;28;20450;-83
2023/12/25 05:49:36;;;;;;;24.05;14.90;;;10.20;99.90;;;;;;4979666;28;20037;-83
2023/12/25 05:52:03;;;;;;;21.33;14.60;;;10.20;99.90;;;;;;4979335;28;20030;-82
2023/12/25 05:54:30;;;;;;;30.92;14.68;;;10.30;99.90;;;;;;4959970;28;20023;-82
2023/12/25 05:56:56;;;;;;;23.00;15.00;;;10.30;99.90;;;;;;4976075;28;20062;-82
2023/12/25 05:59:23;;;;;;;22.50;14.98;;;10.30;99.90;;;;;;4960159;28;20427;-82
2023/12/25 06:01:49;;;;;;;21.98;13.95;;;10.30;99.90;;;;;;4974185;28;20026;-82
2023/12/25 06:04:15;;;;;;;22.55;14.10;;;10.30;99.90;;;;;;5013180;28;20080;-83
2023/12/25 06:06:42;;;;;;;25.90;14.38;;;10.30;99.90;;;;;;4995570;28;20026;-82
2023/12/25 06:09:12;;;;;;;22.33;14.25;;;10.40;99.90;;;;;;4979387;28;20025;-82
2023/12/25 06:11:38;;;;;;;31.52;16.35;;;10.40;99.90;;;;;;4979539;28;20063;-83
2023/12/25 06:14:11;;;;;;;38.40;17.50;;;10.40;99.90;;;;;;4979474;28;20030;-83
2023/12/25 06:16:37;;;;;;;34.10;16.17;;;10.50;99.90;;;;;;4981520;28;20105;-83
2023/12/25 06:19:03;;;;;;;25.02;14.20;;;10.50;99.90;;;;;;4983426;28;20064;-84
2023/12/25 06:21:36;;;;;;;23.05;15.55;;;10.50;99.90;;;;;;4971715;28;20037;-84
2023/12/25 06:24:02;;;;;;;28.08;16.58;;;10.50;99.90;;;;;;4963772;28;20039;-84
2023/12/25 06:26:29;;;;;;;30.38;16.15;;;10.50;99.90;;;;;;4963697;28;20033;-83
2023/12/25 06:28:55;;;;;;;37.75;16.98;;;10.50;99.90;;;;;;4963825;28;20125;-84
2023/12/25 06:31:21;;;;;;;35.13;16.50;;;10.60;99.90;;;;;;4973778;28;20501;-83
2023/12/25 06:33:48;;;;;;;38.88;18.88;;;10.60;99.90;;;;;;4982975;28;20045;-84
2023/12/25 06:36:14;;;;;;;37.63;19.58;;;10.60;99.90;;;;;;4999260;28;20026;-83
2023/12/25 06:38:41;;;;;;;44.17;20.52;;;10.60;99.90;;;;;;4982903;28;20045;-84
2023/12/25 06:41:09;;;;;;;48.97;21.02;;;10.60;99.90;;;;;;4983301;28;20030;-84
2023/12/25 06:43:36;;;;;;;42.42;20.08;;;10.70;99.90;;;;;;4982796;28;20398;-83
2023/12/25 06:46:05;;;;;;;90.25;22.40;;;10.60;99.90;;;;;;4998915;28;20493;-82
2023/12/25 06:48:31;;;;;;;81.63;19.77;;;10.70;99.90;;;;;;4982405;28;20041;-83
2023/12/25 06:50:58;;;;;;;50.20;17.73;;;10.70;99.90;;;;;;4982758;28;20490;-85
2023/12/25 06:53:24;;;;;;;26.50;16.35;;;10.70;99.90;;;;;;4982848;28;20030;-83
2023/12/25 06:55:54;;;;;;;37.40;16.55;;;10.80;99.90;;;;;;4982253;28;20025;-84
2023/12/25 06:58:27;;;;;;;57.60;17.20;;;10.80;99.90;;;;;;4980272;28;20041;-84
2023/12/25 07:00:53;;;;;;;90.63;20.35;;;10.80;99.90;;;;;;4982764;28;20479;-85
2023/12/25 07:03:20;;;;;;;85.63;19.55;;;10.80;99.90;;;;;;4982764;28;20026;-83
2023/12/25 07:05:48;;;;;;;93.45;21.40;;;10.80;99.90;;;;;;4998953;28;20029;-83
2023/12/25 07:08:15;;;;;;;73.63;20.83;;;10.90;99.90;;;;;;4998535;28;20022;-80
2023/12/25 07:10:46;;;;;;;28.10;17.45;;;10.90;99.90;;;;;;5016340;28;20088;-86
2023/12/25 07:13:13;;;;;;;32.92;15.68;;;10.90;99.90;;;;;;4977978;28;20449;-80
2023/12/25 07:15:40;;;;;;;100.13;21.88;;;10.90;99.90;;;;;;4959372;28;20508;-83
2023/12/25 07:18:07;;;;;;;34.13;18.30;;;10.90;99.90;;;;;;4959440;28;20043;-84
2023/12/25 07:20:33;;;;;;;36.00;16.92;;;10.90;99.90;;;;;;4959679;28;20030;-83
2023/12/25 07:22:59;;;;;;;26.98;18.42;;;10.90;99.90;;;;;;4959862;28;20089;-85
2023/12/25 07:25:26;;;;;;;42.17;21.27;;;10.90;99.90;;;;;;4959668;28;20085;-88
2023/12/25 07:27:53;;;;;;;48.08;21.02;;;10.90;99.90;;;;;;4959095;28;20027;-84
2023/12/25 07:30:22;;;;;;;42.05;20.05;;;10.90;99.90;;;;;;4959720;28;20484;-84
2023/12/25 07:32:48;;;;;;;39.70;19.40;;;10.90;99.90;;;;;;4960015;28;20121;-88
2023/12/25 07:35:15;;;;;;;67.75;22.77;;;11.00;99.90;;;;;;4959392;28;20027;-87
2023/12/25 07:37:41;;;;;;;59.30;22.83;;;11.10;99.90;;;;;;4943861;28;20042;-87
2023/12/25 07:40:11;;;;;;;49.88;24.35;;;11.20;99.90;;;;;;4959433;28;20023;-86
2023/12/25 07:42:41;;;;;;;49.88;23.88;;;11.20;99.90;;;;;;4997869;28;20041;-86
2023/12/25 07:45:14;;;;;;;88.80;26.33;;;11.30;99.90;;;;;;4982036;28;20487;-87
2023/12/25 07:47:40;;;;;;;31.67;20.70;;;11.40;99.90;;;;;;4997879;28;20055;-88
2023/12/25 07:50:08;;;;;;;71.20;22.98;;;11.50;99.90;;;;;;4981923;28;20080;-87
2023/12/25 07:52:37;;;;;;;53.28;20.38;;;11.60;99.90;;;;;;4962989;28;20543;-87
2023/12/25 07:55:04;;;;;;;57.20;21.48;;;11.70;99.90;;;;;;4962685;28;20026;-86
2023/12/25 07:57:30;;;;;;;36.80;19.23;;;11.90;99.90;;;;;;4962593;28;20452;-86
2023/12/25 08:00:00;;;;;;;33.42;19.70;;;11.90;99.90;;;;;;4962627;28;20034;-86
2023/12/25 08:02:26;;;;;;;50.00;21.60;;;12.10;99.90;;;;;;4962342;28;20038;-87
2023/12/25 08:04:52;;;;;;;32.95;20.80;;;12.30;99.90;;;;;;4962785;28;20054;-88
2023/12/25 08:07:19;;;;;;;31.70;21.58;;;12.50;99.90;;;;;;4962333;28;20491;-89
2023/12/25 08:09:45;;;;;;;50.63;25.45;;;12.70;99.90;;;;;;4962758;28;20068;-87
2023/12/25 08:12:11;;;;;;;41.58;24.05;;;12.80;99.90;;;;;;4962650;28;20026;-87
2023/12/25 08:14:40;;;;;;;35.10;25.48;;;12.90;99.90;;;;;;4954776;28;20026;-87
2023/12/25 08:17:07;;;;;;;44.63;28.58;;;13.10;99.90;;;;;;4959063;28;20507;-87
2023/12/25 08:19:33;;;;;;;39.30;26.20;;;13.40;99.90;;;;;;4959471;28;20379;-89
2023/12/25 08:21:59;;;;;;;40.38;26.23;;;13.70;99.90;;;;;;4959319;28;20027;-88
2023/12/25 08:24:25;;;;;;;38.72;25.27;;;13.70;99.90;;;;;;4971388;28;20030;-87
2023/12/25 08:26:52;;;;;;;31.73;22.52;;;13.70;99.90;;;;;;4962131;28;20022;-92
2023/12/25 08:29:19;;;;;;;37.75;23.67;;;13.90;99.90;;;;;;4962234;28;20061;-89
2023/12/25 08:31:45;;;;;;;48.30;27.75;;;13.90;99.90;;;;;;4962417;28;20042;-90
2023/12/25 08:34:12;;;;;;;42.13;27.65;;;13.90;99.90;;;;;;4962226;28;20080;-89
2023/12/25 08:36:38;;;;;;;39.85;28.45;;;14.00;99.90;;;;;;4961759;28;20113;-88
2023/12/25 08:39:04;;;;;;;35.63;26.90;;;14.30;99.90;;;;;;4962010;28;20044;-90
2023/12/25 08:41:31;;;;;;;35.45;25.65;;;14.60;99.90;;;;;;4962074;28;20026;-86
2023/12/25 08:43:58;;;;;;;36.90;26.25;;;14.60;99.90;;;;;;4953290;28;20493;-89
2023/12/25 08:46:25;;;;;;;31.15;25.20;;;14.60;99.90;;;;;;4958271;28;20046;-87
2023/12/25 08:48:51;;;;;;;36.65;25.25;;;14.70;99.90;;;;;;4954778;28;20134;-87
2023/12/25 08:51:17;;;;;;;32.72;24.77;;;14.90;99.90;;;;;;4939878;28;20024;-91
2023/12/25 08:53:44;;;;;;;31.85;26.05;;;15.20;99.90;;;;;;4961723;28;20034;-89
2023/12/25 08:56:11;;;;;;;27.25;24.48;;;15.30;99.90;;;;;;4958836;28;20023;-91
2023/12/25 08:58:40;;;;;;;30.08;24.83;;;15.20;99.90;;;;;;4974244;28;20047;-90
2023/12/25 09:01:06;;;;;;;26.92;23.95;;;15.20;99.90;;;;;;4958386;28;20496;-88
2023/12/25 09:03:32;;;;;;;30.83;23.88;;;15.20;99.90;;;;;;4962486;28;20036;-88
2023/12/25 09:05:59;;;;;;;39.28;26.63;;;15.30;99.90;;;;;;4977748;28;20030;-89
2023/12/25 09:08:25;;;;;;;28.05;24.42;;;15.40;99.90;;;;;;4979234;28;20034;-88
2023/12/25 09:10:51;;;;;;;27.10;24.30;;;15.50;99.90;;;;;;4958164;28;20102;-88
2023/12/25 09:13:17;;;;;;;26.25;23.02;;;15.70;99.90;;;;;;4974323;28;20035;-87
2023/12/25 09:15:44;;;;;;;31.13;25.05;;;15.80;99.90;;;;;;4958335;28;20498;-88
2023/12/25 09:18:10;;;;;;;29.48;24.50;;;15.90;99.90;;;;;;4974170;28;20050;-87
2023/12/25 09:20:36;;;;;;;39.03;22.88;;;15.90;99.90;;;;;;4957731;28;20031;-85
2023/12/25 09:23:03;;;;;;;27.80;20.83;;;16.30;99.90;;;;;;4973518;28;20030;-86
2023/12/25 09:25:29;;;;;;;42.55;23.52;;;16.30;99.90;;;;;;4955899;28;20113;-85
2023/12/25 09:27:55;;;;;;;35.35;23.13;;;16.30;99.90;;;;;;4954282;28;20239;-85
2023/12/25 09:30:22;;;;;;;37.97;25.15;;;16.30;99.90;;;;;;4938048;29;20086;-86
2023/12/25 09:32:48;;;;;;;29.48;24.27;;;16.20;99.90;;;;;;4991805;28;20034;-85
2023/12/25 09:35:15;;;;;;;32.03;27.48;;;16.10;99.90;;;;;;4964899;28;20074;-86
2023/12/25 09:37:42;;;;;;;118.13;66.35;;;16.30;99.90;;;;;;4954168;28;20045;-84
2023/12/25 09:40:12;;;;;;;55.08;42.97;;;16.40;99.90;;;;;;4938081;29;20031;-83
2023/12/25 09:42:39;;;;;;;30.35;24.13;;;16.30;99.90;;;;;;4988560;28;20041;-84
2023/12/25 09:45:06;;;;;;;35.97;24.73;;;16.30;99.90;;;;;;4952308;28;20027;-83
2023/12/25 09:47:35;;;;;;;36.67;30.55;;;16.20;99.90;;;;;;4954968;28;20028;-83
2023/12/25 09:50:05;;;;;;;32.40;23.58;;;16.20;99.90;;;;;;4968918;28;20034;-83
2023/12/25 09:52:32;;;;;;;29.35;24.77;;;16.30;99.90;;;;;;4976909;28;20065;-84
2023/12/25 09:54:58;;;;;;;27.60;22.30;;;16.20;99.90;;;;;;4956836;28;20030;-83
2023/12/25 09:57:26;;;;;;;33.03;21.88;;;16.10;99.90;;;;;;4956608;28;20496;-84
2023/12/25 09:59:55;;;;;;;25.52;22.52;;;16.10;99.90;;;;;;4967043;28;20044;-83
2023/12/25 10:02:22;;;;;;;30.30;23.27;;;16.00;99.90;;;;;;4975232;28;20029;-83
2023/12/25 10:04:50;;;;;;;31.73;24.35;;;16.00;99.90;;;;;;4979188;28;20034;-83
2023/12/25 10:07:20;;;;;;;35.28;26.52;;;16.10;99.90;;;;;;4979357;28;20042;-82
2023/12/25 10:09:49;;;;;;;32.38;25.40;;;16.10;99.90;;;;;;5002606;28;20049;-83
2023/12/25 10:12:15;;;;;;;29.67;25.13;;;16.20;99.90;;;;;;4973736;28;20029;-89
2023/12/25 10:14:41;;;;;;;32.58;26.63;;;16.40;99.90;;;;;;4963867;28;20026;-83
2023/12/25 10:17:08;;;;;;;33.60;25.75;;;16.60;99.90;;;;;;4975909;28;20038;-90
2023/12/25 10:19:48;;;;;;;28.95;23.40;;;16.50;99.90;;;;;;4959824;28;20026;-83
2023/12/25 10:22:28;;;;;;;35.80;26.33;;;16.30;99.90;;;;;;5007045;28;20493;-83
2023/12/25 10:25:05;;;;;;;29.77;25.92;;;16.30;99.90;;;;;;4962328;28;20494;-83
2023/12/25 10:27:33;;;;;;;31.15;27.55;;;16.30;99.90;;;;;;4975786;28;20026;-82
2023/12/25 10:30:00;;;;;;;33.42;26.13;;;16.50;99.90;;;;;;4976014;28;20029;-83
2023/12/25 10:32:27;;;;;;;37.08;22.65;;;16.80;99.90;;;;;;4991038;28;20037;-84
2023/12/25 10:35:13;;;;;;;25.95;20.92;;;16.80;99.90;;;;;;4963978;28;20168;-84
2023/12/25 10:37:42;;;;;;;33.53;25.60;;;16.80;99.90;;;;;;4959915;28;20042;-84
2023/12/25 10:40:22;;;;;;;36.17;27.35;;;16.90;99.90;;;;;;4959991;28;20019;-83
2023/12/25 10:42:54;;;;;;;43.95;27.23;;;16.90;99.90;;;;;;4959974;28;20088;-85
2023/12/25 10:45:30;;;;;;;38.00;28.45;;;16.80;99.90;;;;;;4959464;28;20037;-84
2023/12/25 10:48:00;;;;;;;30.05;27.13;;;16.60;99.90;;;;;;4956508;28;20046;-84
2023/12/25 10:50:38;;;;;;;31.90;27.98;;;16.30;99.90;;;;;;4956733;28;20125;-84
2023/12/25 10:53:07;;;;;;;37.55;28.67;;;16.10;99.90;;;;;;4956721;28;20059;-85
2023/12/25 10:55:39;;;;;;;32.95;29.38;;;16.00;99.90;;;;;;4938067;28;20035;-84
2023/12/25 10:58:08;;;;;;;30.42;27.50;;;15.90;99.90;;;;;;4953047;28;20050;-84
2023/12/25 11:01:05;;;;;;;32.60;26.45;;;15.80;99.90;;;;;;4946259;29;20034;-84
2023/12/25 11:03:34;;;;;;;28.58;25.38;;;15.70;99.90;;;;;;4935229;28;20047;-84
2023/12/25 11:06:01;;;;;;;32.60;24.08;;;15.70;99.90;;;;;;4975481;28;20026;-84
2023/12/25 11:08:28;;;;;;;31.27;21.30;;;15.70;99.90;;;;;;4979030;28;20152;-84
2023/12/25 11:10:54;;;;;;;26.00;21.33;;;15.70;99.90;;;;;;4992812;28;20113;-85
2023/12/25 11:13:21;;;;;;;22.38;19.17;;;15.90;99.90;;;;;;4959152;28;20377;-84
2023/12/25 11:15:47;;;;;;;21.13;17.98;;;16.00;99.90;;;;;;4975788;28;20035;-83
2023/12/25 11:18:18;;;;;;;25.50;17.67;;;16.00;99.90;;;;;;4975574;28;20038;-83
2023/12/25 11:21:09;;;;;;;22.02;16.50;;;16.10;99.90;;;;;;4976126;28;20042;-84
2023/12/25 11:23:41;;;;;;;19.52;17.08;;;16.20;99.90;;;;;;4985258;28;20031;-84
2023/12/25 11:26:17;;;;;;;23.17;18.45;;;16.40;99.90;;;;;;4975368;28;20476;-85
2023/12/25 11:29:02;;;;;;;25.83;18.65;;;16.40;99.90;;;;;;4975511;28;20042;-84
2023/12/25 11:31:41;;;;;;;30.35;20.58;;;16.50;99.90;;;;;;4981966;28;20026;-85
2023/12/25 11:34:32;;;;;;;130.15;57.47;;;16.60;99.90;;;;;;4963551;28;20062;-85
2023/12/25 11:37:01;;;;;;;95.90;44.72;;;16.70;99.90;;;;;;4975682;28;20404;-87
2023/12/25 11:39:31;;;;;;;65.68;33.65;;;16.90;99.90;;;;;;4959417;28;20481;-82
2023/12/25 11:42:03;;;;;;;43.75;24.35;;;17.00;99.90;;;;;;4987194;28;20026;-85
2023/12/25 11:44:32;;;;;;;24.73;18.67;;;17.00;99.90;;;;;;4977144;28;20070;-84
2023/12/25 11:47:00;;;;;;;43.33;27.27;;;17.10;99.90;;;;;;4975233;28;20027;-84
2023/12/25 11:49:36;;;;;;;33.40;22.35;;;17.20;99.90;;;;;;4975236;28;20050;-85
2023/12/25 11:52:05;;;;;;;23.40;18.58;;;17.30;99.90;;;;;;4975421;28;20031;-84
2023/12/25 11:54:36;;;;;;;27.20;19.35;;;17.30;99.90;;;;;;4957364;28;20031;-84
2023/12/25 11:57:18;;;;;;;31.98;20.27;;;17.20;99.90;;;;;;4956901;28;20388;-82
2023/12/25 11:59:46;;;;;;;29.95;21.17;;;17.10;99.90;;;;;;4957044;28;20031;-86
2023/12/25 12:02:17;;;;;;;26.25;21.58;;;17.20;99.90;;;;;;4980216;28;20467;-84
2023/12/25 12:04:46;;;;;;;20.58;18.38;;;17.20;99.90;;;;;;4994581;28;20037;-85
2023/12/25 12:07:14;;;;;;;24.02;19.95;;;17.10;99.90;;;;;;4974247;28;20100;-84
2023/12/25 12:09:41;;;;;;;25.77;19.90;;;17.10;99.90;;;;;;4955945;29;20400;-84
2023/12/25 12:12:10;;;;;;;24.42;19.80;;;17.00;99.90;;;;;;4977625;28;20168;-84
2023/12/25 12:14:37;;;;;;;22.52;20.05;;;16.80;99.90;;;;;;4994190;28;20476;-85
2023/12/25 12:17:04;;;;;;;25.65;19.98;;;16.60;99.90;;;;;;4978460;28;20038;-86
2023/12/25 12:19:31;;;;;;;24.25;19.63;;;16.30;99.90;;;;;;4956055;28;20038;-87
2023/12/25 12:21:59;;;;;;;22.38;18.65;;;16.10;99.90;;;;;;4972147;28;20535;-84
2023/12/25 12:24:28;;;;;;;29.65;19.45;;;16.00;99.90;;;;;;4972188;28;20039;-86
2023/12/25 12:27:20;;;;;;;27.38;17.95;;;15.90;99.90;;;;;;4972086;28;20038;-88
2023/12/25 12:29:50;;;;;;;;;;;15.80;99.90;;;;;;4940457;29;20023;-86
2023/12/25 12:32:17;;;;;;;19.58;17.02;;;15.80;99.90;;;;;;4963226;28;19910;-85
2023/12/25 12:34:44;;;;;;;25.95;18.10;;;15.80;99.90;;;;;;4993450;28;20035;-85